Time;durP1;ratioP1;P1;durP2;ratioP2;P2;SDS_P1;SDS_P2;PMS_P1;PMS_P2;Temp;Humidity;BMP_temperature;BMP_pressure;BME280_temperature;BME280_humidity;BME280_pressure;Samples;Min_cycle;Max_cycle;Signal;HPM_P1;HPM_P2
2022/03/09 00:01:38;;;;;;;9.65;5.28;;;;;;;-1.30;100.00;102383.69;4932227;29;20036;-78
2022/03/09 00:04:05;;;;;;;9.20;5.15;;;;;;;-1.35;100.00;102388.06;4926346;29;20050;-78
2022/03/09 00:06:33;;;;;;;9.73;4.90;;;;;;;-1.42;100.00;102389.91;4948868;28;20043;-77
2022/03/09 00:08:59;;;;;;;8.40;5.32;;;;;;;-1.44;100.00;102388.25;4951040;28;20036;-77
2022/03/09 00:11:25;;;;;;;9.18;5.25;;;;;;;-1.46;100.00;102397.72;4946639;29;20458;-77
2022/03/09 00:13:50;;;;;;;8.85;5.20;;;;;;;-1.53;100.00;102396.13;4940291;29;20494;-77
2022/03/09 00:16:16;;;;;;;9.88;5.07;;;;;;;-1.62;100.00;102391.97;4915239;29;20043;-78
2022/03/09 00:18:41;;;;;;;9.43;5.65;;;;;;;-1.67;100.00;102402.38;4950511;29;20055;-77
2022/03/09 00:21:07;;;;;;;9.85;5.25;;;;;;;-1.88;100.00;102383.03;4950837;29;20493;-77
2022/03/09 00:23:32;;;;;;;13.18;5.25;;;;;;;-1.81;100.00;102399.19;4948162;28;20036;-78
2022/03/09 00:25:58;;;;;;;13.35;6.30;;;;;;;-1.90;100.00;102391.63;4932376;29;20118;-77
2022/03/09 00:28:24;;;;;;;12.00;5.97;;;;;;;-1.86;100.00;102398.44;4948800;29;20624;-77
2022/03/09 00:30:50;;;;;;;12.48;6.40;;;;;;;-1.89;100.00;102399.31;4930607;29;20028;-78
2022/03/09 00:33:15;;;;;;;11.13;6.18;;;;;;;-1.84;100.00;102405.25;4949275;29;20051;-77
2022/03/09 00:35:42;;;;;;;13.88;7.00;;;;;;;-1.82;100.00;102395.75;4934684;29;20040;-79
2022/03/09 00:38:08;;;;;;;12.98;6.70;;;;;;;-1.75;100.00;102399.09;4937873;29;20050;-78
2022/03/09 00:40:34;;;;;;;12.38;6.45;;;;;;;-1.79;100.00;102407.72;4937704;29;20663;-77
2022/03/09 00:43:00;;;;;;;11.05;6.15;;;;;;;-1.80;100.00;102406.03;4934188;29;20782;-78
2022/03/09 00:45:26;;;;;;;8.27;5.20;;;;;;;-1.87;100.00;102397.56;4931789;29;20059;-78
2022/03/09 00:47:51;;;;;;;12.23;6.00;;;;;;;-1.94;100.00;102384.84;4916942;29;20043;-77
2022/03/09 00:50:17;;;;;;;12.85;6.15;;;;;;;-1.97;100.00;102388.31;4933492;29;20091;-77
2022/03/09 00:52:43;;;;;;;13.13;6.57;;;;;;;-1.87;100.00;102399.28;4952072;28;20489;-78
2022/03/09 00:55:09;;;;;;;8.68;6.20;;;;;;;-1.80;100.00;102398.31;4950883;28;20046;-78
2022/03/09 00:57:35;;;;;;;12.95;6.05;;;;;;;-1.68;100.00;102392.94;4945396;29;20051;-77
2022/03/09 01:00:00;;;;;;;10.82;6.50;;;;;;;-1.64;100.00;102397.19;4932565;29;20130;-77
2022/03/09 01:02:26;;;;;;;9.93;6.70;;;;;;;-1.60;100.00;102390.22;4947661;29;20047;-78
2022/03/09 01:04:52;;;;;;;10.07;6.25;;;;;;;-1.50;100.00;102391.78;4948654;28;20411;-77
2022/03/09 01:07:18;;;;;;;11.05;5.97;;;;;;;-1.38;100.00;102388.94;4946288;28;20122;-76
2022/03/09 01:09:44;;;;;;;11.93;5.43;;;;;;;-1.35;100.00;102394.94;4935853;29;20118;-77
2022/03/09 01:12:09;;;;;;;15.45;6.10;;;;;;;-1.37;100.00;102389.81;4918860;29;20067;-77
2022/03/09 01:14:35;;;;;;;10.15;5.90;;;;;;;-1.39;100.00;102381.28;4947523;28;20036;-78
2022/03/09 01:17:01;;;;;;;11.40;5.93;;;;;;;-1.35;100.00;102382.91;4948275;29;20130;-77
2022/03/09 01:19:26;;;;;;;12.35;6.47;;;;;;;-1.31;100.00;102386.28;4917120;29;20047;-78
2022/03/09 01:21:52;;;;;;;8.75;5.70;;;;;;;-1.33;100.00;102378.59;4949358;29;20477;-79
2022/03/09 01:24:18;;;;;;;9.63;6.22;;;;;;;-1.32;100.00;102382.00;4934238;29;20414;-78
2022/03/09 01:26:44;;;;;;;11.07;6.20;;;;;;;-1.45;100.00;102392.56;4948894;29;20094;-78
2022/03/09 01:29:11;;;;;;;14.18;6.30;;;;;;;-1.60;100.00;102379.94;4932443;29;20402;-78
2022/03/09 01:31:37;;;;;;;10.65;5.68;;;;;;;-1.69;100.00;102380.97;4931145;29;20031;-78
2022/03/09 01:34:03;;;;;;;12.90;6.38;;;;;;;-1.86;100.00;102370.13;4932072;29;20090;-78
2022/03/09 01:36:28;;;;;;;10.70;6.60;;;;;;;-1.87;100.00;102381.28;4947551;29;20067;-78
2022/03/09 01:38:54;;;;;;;13.43;7.07;;;;;;;-1.90;100.00;102373.59;4948706;28;20074;-78
2022/03/09 01:41:20;;;;;;;13.25;6.90;;;;;;;-1.90;100.00;102366.78;4935871;29;20040;-78
2022/03/09 01:44:04;;;;;;;12.07;6.45;;;;;;;-2.03;100.00;102362.72;4948014;28;20043;-78
2022/03/09 01:46:29;;;;;;;11.05;6.43;;;;;;;-2.04;100.00;102364.41;4935762;29;20039;-79
2022/03/09 01:48:55;;;;;;;13.50;6.70;;;;;;;-1.97;100.00;102358.28;4918411;29;20050;-78
2022/03/09 01:51:21;;;;;;;12.27;6.47;;;;;;;-1.89;100.00;102370.19;4948829;29;20508;-78
2022/03/09 01:53:46;;;;;;;16.45;6.38;;;;;;;-1.90;100.00;102355.59;4928999;29;20044;-77
2022/03/09 01:56:12;;;;;;;17.52;7.60;;;;;;;-1.80;100.00;102372.59;4931434;29;20043;-77
2022/03/09 01:58:40;;;;;;;13.35;7.90;;;;;;;-1.76;100.00;102359.63;4945273;29;20036;-77
2022/03/09 02:01:06;;;;;;;13.43;6.85;;;;;;;-2.02;100.00;102347.22;4936385;28;20036;-78
2022/03/09 02:03:32;;;;;;;15.77;6.78;;;;;;;-2.09;100.00;102362.78;4925958;29;20090;-77
2022/03/09 02:05:59;;;;;;;11.65;6.53;;;;;;;-2.10;100.00;102364.53;4932193;29;20442;-77
2022/03/09 02:11:08;;;;;;;14.95;6.57;;;;;;;-2.28;100.00;102352.81;4950529;28;20036;-78
2022/03/09 02:13:38;;;;;;;11.75;6.82;;;;;;;-2.23;100.00;102358.72;4946285;28;20062;-77
2022/03/09 02:16:05;;;;;;;10.30;6.40;;;;;;;-2.24;100.00;102362.19;4946572;28;20046;-78
2022/03/09 02:18:30;;;;;;;12.25;7.40;;;;;;;-2.32;100.00;102363.16;4945337;29;20043;-76
2022/03/09 02:21:00;;;;;;;14.30;7.20;;;;;;;-2.28;100.00;102359.66;4928069;28;20035;-77
2022/03/09 02:23:26;;;;;;;12.85;6.95;;;;;;;-2.22;100.00;102355.28;4927812;29;20050;-78
2022/03/09 02:25:52;;;;;;;15.15;7.35;;;;;;;-2.25;100.00;102363.03;4929672;29;20036;-77
2022/03/09 02:28:18;;;;;;;12.68;7.32;;;;;;;-2.25;100.00;102365.63;4930635;29;20063;-77
2022/03/09 02:30:43;;;;;;;11.38;6.50;;;;;;;-2.27;100.00;102362.22;4930315;29;20035;-76
2022/03/09 02:33:10;;;;;;;11.52;6.40;;;;;;;-2.28;100.00;102367.38;4931526;29;20040;-77
2022/03/09 02:35:36;;;;;;;11.35;6.80;;;;;;;-2.32;100.00;102360.59;4933464;29;20118;-78
2022/03/09 02:38:01;;;;;;;13.43;6.68;;;;;;;-2.34;100.00;102363.19;4951264;28;20039;-77
2022/03/09 02:40:27;;;;;;;17.48;6.75;;;;;;;-2.46;100.00;102353.09;4945593;29;20032;-78
2022/03/09 02:42:52;;;;;;;9.73;6.50;;;;;;;-2.53;100.00;102354.06;4948947;29;20032;-78
2022/03/09 02:45:18;;;;;;;10.82;6.28;;;;;;;-2.55;100.00;102365.19;4933263;29;20039;-78
2022/03/09 02:47:45;;;;;;;9.98;6.53;;;;;;;-2.69;100.00;102367.13;4949960;29;20058;-78
2022/03/09 02:50:15;;;;;;;12.45;6.72;;;;;;;-2.71;100.00;102380.84;4933626;29;20079;-77
2022/03/09 02:52:42;;;;;;;13.93;7.00;;;;;;;-2.72;100.00;102382.59;4951262;28;20051;-78
2022/03/09 02:55:09;;;;;;;13.15;6.85;;;;;;;-2.72;100.00;102384.31;4935845;28;20043;-77
2022/03/09 02:57:35;;;;;;;13.63;7.32;;;;;;;-2.72;100.00;102372.31;4947168;29;20039;-77
2022/03/09 03:00:03;;;;;;;9.98;6.75;;;;;;;-2.74;100.00;102380.03;4913815;29;20074;-78
2022/03/09 03:02:28;;;;;;;15.70;7.18;;;;;;;-2.83;100.00;102359.59;4950114;29;20375;-78
2022/03/09 03:04:54;;;;;;;12.57;7.78;;;;;;;-2.82;100.00;102361.31;4949913;29;20111;-78
2022/03/09 03:07:19;;;;;;;11.80;7.72;;;;;;;-2.76;100.00;102370.66;4950670;28;20426;-77
2022/03/09 03:09:45;;;;;;;13.77;7.85;;;;;;;-2.74;100.00;102384.31;4937278;29;20043;-78
2022/03/09 03:12:10;;;;;;;11.40;7.25;;;;;;;-2.82;100.00;102361.31;4934754;29;20047;-77
2022/03/09 03:14:36;;;;;;;13.93;7.03;;;;;;;-2.79;100.00;102376.69;4949444;28;20035;-78
2022/03/09 03:17:02;;;;;;;13.15;7.30;;;;;;;-2.78;100.00;102374.97;4919151;29;20553;-78
2022/03/09 03:19:28;;;;;;;12.38;7.20;;;;;;;-2.75;100.00;102370.63;4950709;29;20067;-78
2022/03/09 03:21:53;;;;;;;14.15;7.78;;;;;;;-2.72;100.00;102367.16;4947419;29;20055;-78
2022/03/09 03:24:19;;;;;;;14.98;7.55;;;;;;;-2.70;100.00;102374.84;4901472;29;20405;-77
2022/03/09 03:26:45;;;;;;;14.27;7.75;;;;;;;-2.70;100.00;102375.69;4932968;29;20051;-78
2022/03/09 03:29:10;;;;;;;11.38;7.25;;;;;;;-2.76;100.00;102373.22;4934314;29;20070;-78
2022/03/09 03:31:36;;;;;;;11.73;7.30;;;;;;;-2.73;100.00;102378.34;4949261;29;20039;-78
2022/03/09 03:34:01;;;;;;;12.95;7.10;;;;;;;-2.73;100.00;102375.75;4915358;29;20067;-78
2022/03/09 03:36:27;;;;;;;12.60;6.97;;;;;;;-2.80;100.00;102369.00;4934390;29;20050;-78
2022/03/09 03:38:52;;;;;;;11.77;7.15;;;;;;;-2.74;100.00;102371.47;4936331;29;20059;-77
2022/03/09 03:41:18;;;;;;;11.55;6.93;;;;;;;-2.74;100.00;102380.03;4929234;29;20054;-78
2022/03/09 03:43:43;;;;;;;12.18;7.03;;;;;;;-2.71;100.00;102386.00;4953129;29;20043;-77
2022/03/09 03:46:09;;;;;;;13.80;6.85;;;;;;;-2.77;100.00;102380.09;4935841;29;20036;-78
2022/03/09 03:48:34;;;;;;;12.40;7.30;;;;;;;-2.79;100.00;102379.25;4936929;29;20051;-78
2022/03/09 03:51:00;;;;;;;14.80;7.47;;;;;;;-2.80;100.00;102379.28;4947646;29;20067;-78
2022/03/09 03:53:26;;;;;;;15.32;7.28;;;;;;;-2.81;100.00;102375.00;4920150;29;20044;-78
2022/03/09 03:55:52;;;;;;;15.10;7.20;;;;;;;-2.82;100.00;102374.16;4934937;29;20035;-78
2022/03/09 03:58:18;;;;;;;11.20;7.00;;;;;;;-2.78;100.00;102370.66;4933272;29;20040;-78
2022/03/09 04:00:43;;;;;;;10.20;6.97;;;;;;;-2.83;100.00;102358.75;4937036;29;20402;-77
2022/03/09 04:03:10;;;;;;;10.98;7.28;;;;;;;-2.77;100.00;102366.38;4934583;29;20043;-78
2022/03/09 04:05:36;;;;;;;13.77;7.32;;;;;;;-2.80;100.00;102366.44;4939850;29;20047;-78
2022/03/09 04:08:01;;;;;;;12.13;7.57;;;;;;;-2.82;100.00;102365.59;4940064;29;20040;-78
2022/03/09 04:10:27;;;;;;;11.70;6.75;;;;;;;-2.86;100.00;102361.34;4937916;28;20053;-78
2022/03/09 04:12:52;;;;;;;11.73;7.10;;;;;;;-2.95;100.00;102355.47;4941245;29;20039;-78
2022/03/09 04:15:18;;;;;;;14.35;6.82;;;;;;;-2.95;100.00;102372.63;4926385;29;20035;-77
2022/03/09 04:17:47;;;;;;;13.88;7.40;;;;;;;-2.98;100.00;102365.78;4939362;29;20044;-78
2022/03/09 04:20:14;;;;;;;11.90;7.30;;;;;;;-2.98;100.00;102377.78;4924857;29;20139;-78
2022/03/09 04:22:41;;;;;;;12.18;7.30;;;;;;;-3.00;100.00;102376.94;4937746;29;20044;-78
2022/03/09 04:25:08;;;;;;;13.25;7.68;;;;;;;-3.05;100.00;102374.47;4923031;29;20107;-77
2022/03/09 04:27:34;;;;;;;15.23;8.57;;;;;;;-3.05;100.00;102381.28;4953900;29;20039;-78
2022/03/09 04:30:00;;;;;;;14.02;8.43;;;;;;;-3.07;100.00;102378.75;4921964;29;20434;-78
2022/03/09 04:32:25;;;;;;;10.48;7.05;;;;;;;-3.15;100.00;102365.16;4936825;29;20173;-78
2022/03/09 04:34:54;;;;;;;14.43;8.45;;;;;;;-3.18;100.00;102358.34;4937506;29;20530;-79
2022/03/09 04:37:20;;;;;;;12.07;7.30;;;;;;;-3.24;100.00;102353.31;4934970;29;20035;-77
2022/03/09 04:39:46;;;;;;;10.93;7.18;;;;;;;-3.17;100.00;102366.88;4920164;29;20146;-78
2022/03/09 04:42:12;;;;;;;12.48;7.22;;;;;;;-3.21;100.00;102371.22;4938422;29;20565;-78
2022/03/09 04:44:38;;;;;;;11.10;7.05;;;;;;;-3.23;100.00;102372.09;4950111;28;20414;-77
2022/03/09 04:47:03;;;;;;;12.43;7.25;;;;;;;-3.25;100.00;102377.25;4935083;28;20035;-78
2022/03/09 04:49:29;;;;;;;13.10;6.97;;;;;;;-3.25;100.00;102372.13;4948729;28;20067;-78
2022/03/09 04:51:54;;;;;;;14.80;7.55;;;;;;;-3.27;100.00;102373.00;4937790;29;20036;-79
2022/03/09 04:54:20;;;;;;;13.00;7.45;;;;;;;-3.30;100.00;102365.34;4935048;29;20892;-78
2022/03/09 04:56:46;;;;;;;15.93;8.13;;;;;;;-3.38;100.00;102357.72;4938701;29;20032;-78
2022/03/09 04:59:12;;;;;;;16.10;8.98;;;;;;;-3.39;100.00;102358.59;4936091;28;20094;-78
2022/03/09 05:01:38;;;;;;;15.48;8.50;;;;;;;-3.36;100.00;102367.09;4936213;29;20038;-78
2022/03/09 05:04:04;;;;;;;11.65;7.88;;;;;;;-3.38;100.00;102360.28;4954862;28;20043;-78
2022/03/09 05:06:29;;;;;;;15.60;7.97;;;;;;;-3.34;100.00;102370.50;4918888;29;20036;-78
2022/03/09 05:08:55;;;;;;;15.65;7.75;;;;;;;-3.40;100.00;102369.72;4935947;29;20028;-79
2022/03/09 05:11:20;;;;;;;15.85;7.57;;;;;;;-3.37;100.00;102374.81;4934743;29;20039;-79
2022/03/09 05:13:46;;;;;;;12.20;7.38;;;;;;;-3.39;100.00;102373.97;4936685;28;20079;-79
2022/03/09 05:16:11;;;;;;;14.40;7.03;;;;;;;-3.39;100.00;102369.72;4934179;29;20043;-78
2022/03/09 05:18:40;;;;;;;13.18;8.00;;;;;;;-3.36;100.00;102364.53;4928036;29;20047;-78
2022/03/09 05:21:07;;;;;;;13.45;7.95;;;;;;;-3.36;100.00;102363.69;4935880;29;20028;-79
2022/03/09 05:23:33;;;;;;;13.40;7.85;;;;;;;-3.50;100.00;102348.47;4948124;29;20039;-78
2022/03/09 05:25:58;;;;;;;14.25;7.88;;;;;;;-3.44;100.00;102366.34;4936403;29;20530;-79
2022/03/09 05:28:24;;;;;;;13.27;7.35;;;;;;;-3.53;100.00;102361.31;4950306;29;20047;-78
2022/03/09 05:30:50;;;;;;;11.32;7.90;;;;;;;-3.49;100.00;102365.53;4935302;29;20043;-79
2022/03/09 05:33:15;;;;;;;13.10;7.85;;;;;;;-3.55;100.00;102371.59;4933332;29;20102;-79
2022/03/09 05:35:41;;;;;;;13.35;8.90;;;;;;;-3.51;100.00;102364.69;4934972;29;20120;-79
2022/03/09 05:38:06;;;;;;;17.02;9.00;;;;;;;-3.26;100.00;102390.09;4951398;29;20039;-79
2022/03/09 05:40:32;;;;;;;15.00;9.50;;;;;;;-3.23;100.00;102395.22;4948711;29;20387;-80
2022/03/09 05:42:58;;;;;;;13.45;8.88;;;;;;;-3.32;100.00;102389.28;4930803;28;20494;-79
2022/03/09 05:45:23;;;;;;;15.10;8.45;;;;;;;-3.43;100.00;102387.72;4919206;29;20035;-79
2022/03/09 05:47:49;;;;;;;18.23;8.98;;;;;;;-3.38;100.00;102393.66;4950724;29;20036;-79
2022/03/09 05:50:15;;;;;;;14.38;8.90;;;;;;;-3.33;100.00;102403.00;4931842;29;20062;-79
2022/03/09 05:52:41;;;;;;;17.08;9.25;;;;;;;-3.31;100.00;102405.56;4950670;29;20042;-80
2022/03/09 05:55:07;;;;;;;17.08;8.98;;;;;;;-3.34;100.00;102406.41;4935742;29;20082;-79
2022/03/09 05:57:32;;;;;;;16.42;9.02;;;;;;;-3.33;100.00;102400.44;4946862;29;20031;-80
2022/03/09 05:59:59;;;;;;;15.50;9.27;;;;;;;-3.08;100.00;102404.44;4949735;28;20043;-78
2022/03/09 06:02:24;;;;;;;14.15;9.10;;;;;;;-3.08;100.00;102400.16;4937041;29;20032;-79
2022/03/09 06:04:50;;;;;;;14.50;8.75;;;;;;;-3.09;100.00;102408.72;4934394;29;20397;-78
2022/03/09 06:07:15;;;;;;;16.38;8.63;;;;;;;-3.16;100.00;102407.09;4933985;29;20058;-80
2022/03/09 06:09:41;;;;;;;15.48;8.77;;;;;;;-3.08;100.00;102412.16;4934438;29;20035;-78
2022/03/09 06:12:08;;;;;;;14.93;9.25;;;;;;;-2.96;100.00;102406.84;4934402;29;20039;-79
2022/03/09 06:14:33;;;;;;;15.73;9.85;;;;;;;-2.74;100.00;102410.00;4949637;29;20499;-79
2022/03/09 06:16:59;;;;;;;14.68;9.20;;;;;;;-2.67;100.00;102408.22;4933715;28;20047;-79
2022/03/09 06:19:24;;;;;;;12.75;8.07;;;;;;;-2.68;100.00;102409.06;4937626;29;20098;-78
2022/03/09 06:21:50;;;;;;;14.77;9.00;;;;;;;-2.62;100.00;102414.13;4950321;29;20031;-78
2022/03/09 06:24:18;;;;;;;15.38;8.60;;;;;;;-2.49;100.00;102420.78;4948061;29;20063;-79
2022/03/09 06:26:46;;;;;;;15.10;9.40;;;;;;;-2.27;100.00;102425.66;4951327;28;20023;-79
2022/03/09 06:29:12;;;;;;;15.90;9.18;;;;;;;-2.14;100.00;102424.59;4932561;29;20124;-79
2022/03/09 06:31:39;;;;;;;15.90;9.52;;;;;;;-1.89;100.00;102427.59;4949172;29;20031;-79
2022/03/09 06:34:05;;;;;;;16.13;8.77;;;;;;;-1.70;100.00;102424.72;4930971;29;20651;-79
2022/03/09 06:36:30;;;;;;;13.05;8.15;;;;;;;-1.65;100.00;102431.50;4934569;29;20031;-79
2022/03/09 06:38:56;;;;;;;16.40;8.45;;;;;;;-1.63;100.00;102424.59;4931340;29;20039;-79
2022/03/09 06:41:21;;;;;;;14.93;8.60;;;;;;;-1.46;100.00;102433.75;4915939;29;20106;-79
2022/03/09 06:43:47;;;;;;;15.20;8.52;;;;;;;-1.31;100.00;102422.34;4931504;29;20044;-78
2022/03/09 06:46:16;;;;;;;16.90;8.73;;;;;;;-1.25;100.00;102417.91;4932695;29;20043;-78
2022/03/09 06:48:43;;;;;;;12.35;7.70;;;;;;;-0.98;100.00;102425.97;4934113;28;20055;-79
2022/03/09 06:51:08;;;;;;;15.02;8.07;;;;;;;-0.86;100.00;102428.28;4932217;29;20048;-80
2022/03/09 06:53:34;;;;;;;11.60;7.93;;;;;;;-0.80;100.00;102425.59;4921201;29;20032;-78
2022/03/09 06:56:00;;;;;;;15.02;8.18;;;;;;;-0.65;100.00;102421.00;4939731;29;20078;-78
2022/03/09 06:58:26;;;;;;;12.15;7.78;;;;;;;-0.61;100.00;102426.03;4916733;29;20439;-79
2022/03/09 07:00:52;;;;;;;11.40;7.60;;;;;;;-0.46;100.00;102427.44;4931666;29;20064;-78
2022/03/09 07:03:18;;;;;;;11.65;7.13;;;;;;;-0.37;100.00;102417.81;4916953;29;20047;-79
2022/03/09 07:05:43;;;;;;;10.32;7.38;;;;;;;-0.23;100.00;102434.69;4933574;29;20043;-80
2022/03/09 07:08:09;;;;;;;13.05;7.05;;;;;;;-0.17;100.00;102437.97;4934290;29;20066;-79
2022/03/09 07:10:34;;;;;;;10.98;6.78;;;;;;;-0.11;100.00;102438.69;4955937;28;20051;-79
2022/03/09 07:13:00;;;;;;;10.13;6.65;;;;;;;0.06;100.00;102437.44;4940738;29;20059;-78
2022/03/09 07:15:26;;;;;;;11.95;6.40;;;;;;;0.21;100.00;102443.94;4922499;29;20043;-79
2022/03/09 07:17:52;;;;;;;11.15;6.60;;;;;;;0.23;100.00;102440.47;4954987;29;20039;-79
2022/03/09 07:20:19;;;;;;;11.38;6.30;;;;;;;0.30;100.00;102441.13;4951079;28;20039;-78
2022/03/09 07:22:45;;;;;;;11.45;7.00;;;;;;;0.43;100.00;102447.69;4932971;29;20042;-77
2022/03/09 07:25:12;;;;;;;10.80;6.60;;;;;;;0.54;100.00;102460.31;4914889;29;20044;-79
2022/03/09 07:27:38;;;;;;;13.00;7.07;;;;;;;0.69;100.00;102464.25;4950909;28;20040;-79
2022/03/09 07:30:06;;;;;;;10.48;6.72;;;;;;;0.71;100.00;102460.72;4931387;29;20047;-77
2022/03/09 07:32:32;;;;;;;10.20;7.18;;;;;;;0.72;100.00;102464.19;4949604;29;20035;-78
2022/03/09 07:34:57;;;;;;;12.60;5.90;;;;;;;0.79;100.00;102463.09;4950420;29;20028;-78
2022/03/09 07:37:23;;;;;;;12.80;6.68;;;;;;;0.88;100.00;102455.09;4933111;29;20489;-78
2022/03/09 07:39:48;;;;;;;13.93;7.05;;;;;;;0.95;100.00;102446.31;4932841;29;20554;-77
2022/03/09 07:42:14;;;;;;;10.43;6.50;;;;;;;1.14;100.00;102456.13;4933436;29;20043;-77
2022/03/09 07:44:39;;;;;;;9.55;6.10;;;;;;;1.22;100.00;102461.06;4916921;29;20799;-77
2022/03/09 07:47:05;;;;;;;15.15;6.22;;;;;;;1.26;98.75;102462.69;4916314;29;20039;-77
2022/03/09 07:49:34;;;;;;;12.52;5.90;;;;;;;1.28;98.66;102458.31;4947990;29;20036;-78
2022/03/09 07:52:01;;;;;;;10.57;6.05;;;;;;;1.40;98.63;102465.72;4948236;29;20130;-78
2022/03/09 07:54:27;;;;;;;11.32;6.05;;;;;;;1.46;98.61;102462.94;4932912;29;20039;-78
2022/03/09 07:56:53;;;;;;;12.63;6.63;;;;;;;1.51;97.92;102463.66;4934206;29;20130;-78
2022/03/09 07:59:19;;;;;;;11.63;6.90;;;;;;;1.56;97.00;102460.94;4934030;29;20534;-76
2022/03/09 08:01:44;;;;;;;13.93;6.55;;;;;;;1.69;96.17;102470.00;4930227;29;20045;-77
2022/03/09 08:04:10;;;;;;;9.75;6.28;;;;;;;1.80;96.98;102471.44;4946390;29;20118;-78
2022/03/09 08:06:40;;;;;;;12.85;6.88;;;;;;;1.72;95.68;102462.16;4923559;29;20130;-77
2022/03/09 08:09:06;;;;;;;10.75;6.15;;;;;;;1.70;95.65;102451.03;4931792;29;20054;-77
2022/03/09 08:11:32;;;;;;;10.05;6.35;;;;;;;1.90;96.82;102465.94;4949212;28;20067;-78
2022/03/09 08:13:58;;;;;;;12.13;6.45;;;;;;;2.09;94.20;102480.84;4930955;29;20514;-77
2022/03/09 08:16:23;;;;;;;10.52;5.53;;;;;;;1.98;93.58;102464.81;4948738;29;20495;-78
2022/03/09 08:18:49;;;;;;;11.38;6.43;;;;;;;1.98;94.43;102462.22;4923951;29;20038;-78
2022/03/09 08:21:17;;;;;;;15.55;6.25;;;;;;;2.18;93.44;102472.81;4934231;28;20047;-77
2022/03/09 08:23:42;;;;;;;10.82;5.78;;;;;;;2.15;92.84;102483.28;4938361;29;20054;-77
2022/03/09 08:26:08;;;;;;;13.82;6.38;;;;;;;2.23;92.84;102470.91;4943914;29;20490;-77
2022/03/09 08:28:34;;;;;;;10.27;5.85;;;;;;;2.42;94.18;102476.34;4944788;29;20035;-77
2022/03/09 08:31:00;;;;;;;16.33;5.88;;;;;;;2.58;92.28;102478.41;4918663;29;20130;-77
2022/03/09 08:33:25;;;;;;;13.05;5.50;;;;;;;2.64;91.54;102483.41;4948131;29;20114;-79
2022/03/09 08:35:53;;;;;;;12.05;5.65;;;;;;;2.73;91.65;102486.50;4949372;28;20702;-77
2022/03/09 08:38:19;;;;;;;8.93;5.85;;;;;;;2.84;91.31;102493.06;4916517;29;20119;-78
2022/03/09 08:40:44;;;;;;;11.93;6.13;;;;;;;2.90;91.20;102488.53;4932489;29;20110;-77
2022/03/09 08:43:11;;;;;;;9.57;5.93;;;;;;;2.89;90.36;102494.59;4921035;29;20043;-77
2022/03/09 08:45:37;;;;;;;12.00;6.30;;;;;;;2.93;90.77;102501.34;4949375;29;20127;-78
2022/03/09 08:48:03;;;;;;;9.55;6.22;;;;;;;3.10;90.11;102498.16;4931778;29;20062;-77
2022/03/09 08:50:29;;;;;;;10.63;6.03;;;;;;;3.27;89.16;102507.09;4942783;29;20039;-77
2022/03/09 08:52:54;;;;;;;12.32;6.30;;;;;;;3.36;88.80;102500.72;4936600;29;20059;-78
2022/03/09 08:55:20;;;;;;;13.20;6.15;;;;;;;3.40;87.98;102497.94;4953348;28;20043;-79
2022/03/09 08:57:45;;;;;;;11.95;5.97;;;;;;;3.41;87.74;102491.88;4936827;29;20234;-77
2022/03/09 09:00:11;;;;;;;10.90;5.40;;;;;;;3.57;86.53;102497.31;4932724;29;20035;-77
2022/03/09 09:02:37;;;;;;;12.07;5.78;;;;;;;3.60;86.33;102504.13;4934686;28;20042;-77
2022/03/09 09:05:03;;;;;;;9.73;5.53;;;;;;;3.66;85.71;102496.97;4931834;28;20465;-77
2022/03/09 09:07:28;;;;;;;9.85;5.70;;;;;;;3.84;84.78;102498.03;4937823;29;20031;-79
2022/03/09 09:09:54;;;;;;;10.00;6.10;;;;;;;3.88;84.86;102499.59;4948339;28;20041;-78
2022/03/09 09:12:19;;;;;;;10.93;5.32;;;;;;;4.04;85.43;102502.41;4932774;29;20478;-78
2022/03/09 09:14:46;;;;;;;9.43;5.28;;;;;;;4.08;85.69;102501.38;4937243;29;20494;-78
2022/03/09 09:17:11;;;;;;;9.60;5.90;;;;;;;4.24;83.94;102500.78;4948848;29;20042;-78
2022/03/09 09:19:37;;;;;;;10.07;5.60;;;;;;;4.42;83.02;102492.22;4949296;28;20122;-79
2022/03/09 09:22:03;;;;;;;11.43;5.72;;;;;;;4.47;82.99;102494.63;4917209;29;20098;-78
2022/03/09 09:24:29;;;;;;;9.13;5.10;;;;;;;4.62;82.84;102499.19;4932823;29;20049;-78
2022/03/09 09:26:55;;;;;;;14.15;5.43;;;;;;;4.86;80.85;102507.69;4934005;29;20039;-77
2022/03/09 09:29:21;;;;;;;9.75;5.38;;;;;;;4.91;79.97;102499.69;4913791;29;20046;-78
2022/03/09 09:31:47;;;;;;;8.13;5.35;;;;;;;4.93;78.77;102502.22;4934971;29;20043;-77
2022/03/09 09:34:14;;;;;;;8.40;5.05;;;;;;;5.18;77.47;102509.78;4912926;29;20040;-77
2022/03/09 09:36:42;;;;;;;10.48;5.60;;;;;;;5.12;76.28;102505.69;4922978;29;20036;-77
2022/03/09 09:39:08;;;;;;;8.02;4.95;;;;;;;5.26;75.63;102512.91;4942928;28;20040;-78
2022/03/09 09:41:34;;;;;;;9.52;5.35;;;;;;;5.32;75.48;102504.81;4933029;29;20044;-77
2022/03/09 09:44:00;;;;;;;11.35;5.25;;;;;;;5.58;75.59;102508.84;4946210;28;20046;-77
2022/03/09 09:46:27;;;;;;;11.50;5.10;;;;;;;5.61;74.88;102510.44;4946448;29;20569;-76
2022/03/09 09:48:53;;;;;;;9.10;5.07;;;;;;;5.75;74.37;102504.63;4950737;29;20040;-76
2022/03/09 09:51:22;;;;;;;9.57;5.35;;;;;;;5.85;73.35;102511.91;4938658;29;20040;-76
2022/03/09 09:53:48;;;;;;;10.82;5.38;;;;;;;5.70;73.01;102504.81;4953932;29;20197;-77
2022/03/09 09:56:13;;;;;;;10.15;4.85;;;;;;;5.66;73.31;102506.72;4940487;29;20071;-78
2022/03/09 09:58:43;;;;;;;11.55;5.00;;;;;;;5.76;74.33;102507.13;4936219;29;20032;-76
2022/03/09 10:01:10;;;;;;;10.27;5.50;;;;;;;6.07;74.46;102500.50;4935436;28;20134;-78
2022/03/09 10:03:36;;;;;;;12.75;5.30;;;;;;;6.24;72.74;102505.75;4949089;29;20082;-77
2022/03/09 10:06:01;;;;;;;9.70;5.15;;;;;;;6.42;70.00;102514.44;4917426;29;20043;-77
2022/03/09 10:08:27;;;;;;;12.55;5.25;;;;;;;6.45;71.09;102502.16;4948097;29;20694;-78
2022/03/09 10:10:56;;;;;;;11.98;4.88;;;;;;;6.44;70.31;102496.06;4949195;29;20498;-77
2022/03/09 10:13:27;;;;;;;11.55;5.00;;;;;;;6.65;68.95;102506.34;4937486;29;20039;-77
2022/03/09 10:16:18;;;;;;;9.68;5.88;;;;;;;6.74;67.66;102505.88;4928444;28;20122;-77
2022/03/09 10:18:54;;;;;;;10.48;5.55;;;;;;;6.71;68.15;102506.91;4944377;29;20043;-76
2022/03/09 10:21:23;;;;;;;8.10;5.10;;;;;;;6.90;66.34;102508.56;4946761;28;20036;-77
2022/03/09 10:23:57;;;;;;;9.07;5.18;;;;;;;6.97;65.98;102502.94;4946059;29;20054;-76
2022/03/09 10:26:27;;;;;;;9.23;5.30;;;;;;;7.10;65.69;102515.34;4906350;29;20271;-77
2022/03/09 10:29:04;;;;;;;10.82;5.50;;;;;;;7.26;64.88;102513.63;4912839;29;20050;-77
2022/03/09 10:31:41;;;;;;;7.07;5.07;;;;;;;7.45;64.90;102515.25;4928542;29;20036;-76
2022/03/09 10:34:18;;;;;;;11.30;5.85;;;;;;;7.36;62.65;102519.19;4945899;29;20042;-78
2022/03/09 10:37:04;;;;;;;11.85;5.90;;;;;;;7.55;64.38;102516.41;4924566;29;20083;-78
2022/03/09 10:39:36;;;;;;;9.80;5.45;;;;;;;7.59;62.53;102510.09;4945703;28;20040;-78
2022/03/09 10:42:03;;;;;;;10.40;5.60;;;;;;;7.58;62.78;102513.66;4947458;29;20036;-78
2022/03/09 10:44:44;;;;;;;8.90;5.55;;;;;;;7.62;62.95;102509.13;4946938;29;20040;-76
2022/03/09 10:47:10;;;;;;;11.25;5.22;;;;;;;7.55;63.52;102512.06;4928737;29;20396;-77
2022/03/09 10:49:36;;;;;;;15.25;5.78;;;;;;;7.63;63.47;102495.97;4944982;28;20047;-77
2022/03/09 10:52:01;;;;;;;10.52;5.63;;;;;;;7.86;63.49;102499.09;4929998;29;20044;-77
2022/03/09 10:54:29;;;;;;;8.70;5.30;;;;;;;8.00;63.79;102509.59;4945134;29;20122;-77
2022/03/09 10:57:03;;;;;;;12.55;5.38;;;;;;;7.94;62.49;102500.31;4928126;29;20091;-77
2022/03/09 10:59:43;;;;;;;11.48;5.75;;;;;;;8.09;62.97;102511.69;4946868;29;20051;-77
2022/03/09 11:02:10;;;;;;;9.35;5.72;;;;;;;8.24;60.55;102507.34;4914010;29;20467;-77
2022/03/09 11:04:37;;;;;;;11.35;5.78;;;;;;;8.48;59.92;102506.91;4946140;29;20055;-77
2022/03/09 11:07:03;;;;;;;8.32;4.97;;;;;;;8.55;61.09;102502.97;4927499;29;20110;-77
2022/03/09 11:09:29;;;;;;;10.48;5.53;;;;;;;8.71;60.15;102508.16;4946543;29;20043;-76
2022/03/09 11:11:57;;;;;;;13.93;5.45;;;;;;;9.03;61.11;102506.22;4929495;29;20040;-77
2022/03/09 11:14:26;;;;;;;15.43;6.20;;;;;;;9.01;58.60;102507.25;4928453;29;20063;-78
2022/03/09 11:16:54;;;;;;;11.02;5.82;;;;;;;8.85;58.78;102505.53;4932031;28;20024;-77